createdAt,value
2019-04-13T00:00:56.036Z,12.10
2019-04-13T00:03:25.235Z,11.97
2019-04-13T00:06:03.803Z,11.77
2019-04-13T00:08:35.041Z,12.00
2019-04-13T00:11:30.178Z,12.10
2019-04-13T00:13:59.121Z,13.07
2019-04-13T00:16:28.147Z,12.57
2019-04-13T00:18:57.066Z,14.20
2019-04-13T00:21:26.202Z,13.33
2019-04-13T00:23:55.134Z,13.60
2019-04-13T00:26:24.127Z,12.37
2019-04-13T00:28:53.123Z,11.90
2019-04-13T00:31:22.090Z,12.63
2019-04-13T00:33:51.106Z,13.33
2019-04-13T00:36:20.057Z,12.57
2019-04-13T00:38:49.040Z,12.93
2019-04-13T00:41:18.037Z,15.37
2019-04-13T00:43:47.590Z,13.50
2019-04-13T00:46:16.809Z,14.67
2019-04-13T00:48:46.175Z,12.90
2019-04-13T00:51:15.266Z,14.43
2019-04-13T00:53:44.123Z,12.47
2019-04-13T00:56:13.039Z,12.43
2019-04-13T00:58:42.038Z,13.37
2019-04-13T01:01:10.882Z,13.80
2019-04-13T01:03:39.824Z,12.33
2019-04-13T01:06:09.179Z,13.40
2019-04-13T01:08:38.481Z,12.73
2019-04-13T01:11:07.846Z,12.97
2019-04-13T01:13:36.926Z,12.03
2019-04-13T01:16:06.262Z,14.40
2019-04-13T01:18:35.583Z,14.80
2019-04-13T01:21:04.749Z,12.93
2019-04-13T01:23:33.835Z,13.10
2019-04-13T01:26:03.400Z,13.37
2019-04-13T01:28:32.401Z,13.50
2019-04-13T01:31:01.331Z,13.47
2019-04-13T01:33:30.350Z,14.60
2019-04-13T01:35:59.613Z,12.90
2019-04-13T01:38:28.592Z,15.73
2019-04-13T01:40:57.581Z,14.90
2019-04-13T01:43:26.875Z,13.23
2019-04-13T01:45:55.803Z,13.10
2019-04-13T01:48:24.759Z,13.80
2019-04-13T01:50:53.686Z,15.40
2019-04-13T01:53:22.628Z,14.47
2019-04-13T01:55:51.823Z,14.00
2019-04-13T01:58:20.986Z,13.30
2019-04-13T02:01:15.053Z,14.77
2019-04-13T02:03:50.129Z,17.70
2019-04-13T02:06:19.043Z,12.73
2019-04-13T02:08:56.996Z,13.47
2019-04-13T02:11:29.609Z,14.63
2019-04-13T02:13:58.610Z,14.53
2019-04-13T02:16:27.672Z,13.83
2019-04-13T02:18:56.659Z,15.03
2019-04-13T02:21:25.616Z,15.97
2019-04-13T02:23:55.348Z,13.80
2019-04-13T02:26:24.339Z,15.03
2019-04-13T02:28:53.359Z,14.40
2019-04-13T02:31:22.359Z,14.83
2019-04-13T02:33:51.335Z,13.17
2019-04-13T02:36:20.400Z,18.57
2019-04-13T02:38:49.338Z,17.67
2019-04-13T02:41:18.330Z,16.73
2019-04-13T02:43:47.323Z,16.00
2019-04-13T02:46:16.699Z,13.87
2019-04-13T02:48:45.818Z,19.83
2019-04-13T02:51:14.743Z,15.37
2019-04-13T02:53:43.733Z,16.67
2019-04-13T02:56:12.787Z,15.27
2019-04-13T02:58:41.795Z,16.13
2019-04-13T03:01:10.728Z,15.50
2019-04-13T03:03:39.649Z,15.37
2019-04-13T03:06:08.663Z,15.83
2019-04-13T03:08:37.731Z,15.17
2019-04-13T03:11:07.157Z,16.83
2019-04-13T03:13:36.467Z,17.97
2019-04-13T03:16:37.607Z,15.77
2019-04-13T03:19:14.514Z,15.50
2019-04-13T03:21:43.575Z,14.77
2019-04-13T03:24:12.771Z,17.87
2019-04-13T03:26:42.090Z,16.97
2019-04-13T03:29:11.089Z,16.17
2019-04-13T03:31:40.094Z,17.13
2019-04-13T03:34:09.090Z,16.67
2019-04-13T03:36:37.955Z,15.17
2019-04-13T03:39:08.255Z,16.40
2019-04-13T03:41:37.514Z,15.27
2019-04-13T03:44:06.511Z,13.33
2019-04-13T03:46:35.511Z,16.67
2019-04-13T03:49:04.630Z,16.53
2019-04-13T03:51:34.003Z,13.87
2019-04-13T03:54:02.958Z,16.63
2019-04-13T03:56:31.894Z,15.63
2019-04-13T03:59:00.869Z,15.50
2019-04-13T04:01:29.885Z,15.70
2019-04-13T04:03:58.806Z,17.57
2019-04-13T04:06:27.823Z,15.53
2019-04-13T04:08:56.754Z,18.23
2019-04-13T04:11:25.992Z,16.13
2019-04-13T04:13:54.976Z,17.00
2019-04-13T04:16:24.380Z,15.90
2019-04-13T04:18:53.337Z,17.47
2019-04-13T04:21:22.270Z,14.83
2019-04-13T04:23:51.713Z,13.93
2019-04-13T04:26:21.058Z,14.30
2019-04-13T04:28:50.050Z,15.13
2019-04-13T04:31:18.920Z,15.13
2019-04-13T04:33:47.836Z,17.23
2019-04-13T04:36:23.586Z,16.10
2019-04-13T04:38:47.367Z,15.33
2019-04-13T04:41:16.233Z,14.73
2019-04-13T04:43:45.082Z,14.83
2019-04-13T04:46:14.147Z,14.83
2019-04-13T04:48:43.164Z,14.60
2019-04-13T04:51:12.147Z,16.17
2019-04-13T04:53:41.374Z,16.60
2019-04-13T04:56:10.706Z,14.63
2019-04-13T04:58:39.903Z,14.73
2019-04-13T05:01:09.064Z,14.27
2019-04-13T05:03:38.274Z,14.53
2019-04-13T05:06:07.137Z,14.30
2019-04-13T05:08:36.056Z,11.70
2019-04-13T05:11:05.190Z,13.67
2019-04-13T05:13:34.168Z,13.17
2019-04-13T05:16:03.079Z,13.13
2019-04-13T05:18:32.043Z,14.13
2019-04-13T05:21:00.947Z,13.07
2019-04-13T05:23:29.900Z,11.73
2019-04-13T05:25:59.160Z,15.73
2019-04-13T05:28:28.162Z,15.70
2019-04-13T05:30:57.079Z,13.93
2019-04-13T05:33:26.017Z,16.43
2019-04-13T05:35:54.891Z,12.37
2019-04-13T05:38:23.826Z,15.43
2019-04-13T05:40:52.719Z,13.33
2019-04-13T05:43:21.626Z,13.67
2019-04-13T05:45:50.542Z,15.07
2019-04-13T05:48:19.538Z,16.27
2019-04-13T05:50:48.467Z,15.17
2019-04-13T05:53:17.674Z,12.13
2019-04-13T05:55:46.663Z,14.73
2019-04-13T05:58:15.614Z,14.37
2019-04-13T06:00:44.606Z,14.73
2019-04-13T06:03:13.876Z,13.17
2019-04-13T06:05:42.824Z,10.63
2019-04-13T06:08:11.832Z,12.80
2019-04-13T06:10:40.782Z,15.30
2019-04-13T06:13:09.722Z,13.37
2019-04-13T06:15:38.639Z,13.00
2019-04-13T06:18:20.423Z,13.43
2019-04-13T06:20:38.601Z,15.87
2019-04-13T06:23:07.579Z,12.47
2019-04-13T06:25:36.574Z,14.60
2019-04-13T06:28:05.503Z,10.73
2019-04-13T06:31:01.864Z,13.37
2019-04-13T06:33:36.735Z,13.40
2019-04-13T06:36:08.478Z,12.90
2019-04-13T06:38:36.410Z,14.47
2019-04-13T06:41:05.482Z,10.90
2019-04-13T06:43:34.413Z,11.17
2019-04-13T06:46:03.326Z,12.83
2019-04-13T06:48:34.612Z,11.43
2019-04-13T06:51:02.862Z,13.37
2019-04-13T06:53:32.123Z,12.03
2019-04-13T06:56:03.036Z,11.33
2019-04-13T06:58:31.678Z,11.87
2019-04-13T07:01:00.662Z,13.77
2019-04-13T07:03:30.008Z,12.27
2019-04-13T07:06:00.093Z,11.90
2019-04-13T07:08:38.815Z,12.00
2019-04-13T07:11:25.502Z,11.27
2019-04-13T07:14:05.894Z,12.67
2019-04-13T07:16:43.976Z,10.27
2019-04-13T07:19:12.394Z,11.67
2019-04-13T07:21:41.363Z,12.43
2019-04-13T07:24:10.370Z,9.97
2019-04-13T07:26:40.312Z,11.57
2019-04-13T07:29:09.688Z,12.63
2019-04-13T07:31:38.686Z,10.13
2019-04-13T07:34:07.622Z,12.20
2019-04-13T07:36:41.303Z,13.70
2019-04-13T07:39:08.048Z,13.60
2019-04-13T07:41:37.145Z,10.50
2019-04-13T07:44:08.542Z,10.83
2019-04-13T07:47:16.586Z,12.70
2019-04-13T07:50:02.023Z,11.17
2019-04-13T07:52:33.725Z,11.73
2019-04-13T07:55:02.673Z,11.10
2019-04-13T07:57:31.716Z,10.33
2019-04-13T08:00:00.679Z,13.17
2019-04-13T08:02:29.580Z,9.93
2019-04-13T08:04:58.854Z,11.67
2019-04-13T08:07:27.789Z,10.47
2019-04-13T08:09:56.975Z,11.80
2019-04-13T08:12:26.051Z,10.47
2019-04-13T08:14:55.039Z,10.27
2019-04-13T08:17:32.230Z,9.53
2019-04-13T08:20:34.131Z,10.57
2019-04-13T08:23:03.715Z,9.73
2019-04-13T08:25:41.691Z,10.50
2019-04-13T08:28:15.178Z,10.60
2019-04-13T08:30:43.203Z,10.50
2019-04-13T08:33:12.271Z,11.00
2019-04-13T08:35:42.638Z,13.17
2019-04-13T08:38:13.361Z,10.97
2019-04-13T08:41:03.651Z,11.03
2019-04-13T08:43:13.607Z,10.63
2019-04-13T08:45:44.321Z,11.87
2019-04-13T08:48:13.494Z,9.83
2019-04-13T08:50:42.551Z,10.67
2019-04-13T08:53:11.604Z,12.57
2019-04-13T08:55:40.574Z,15.00
2019-04-13T08:58:09.481Z,11.93
2019-04-13T09:00:38.525Z,9.93
2019-04-13T09:03:07.438Z,10.00
2019-04-13T09:05:36.712Z,11.70
2019-04-13T09:08:05.702Z,11.23
2019-04-13T09:10:35.246Z,11.13
2019-04-13T09:13:04.709Z,11.43
2019-04-13T09:15:34.003Z,12.10
2019-04-13T09:18:16.564Z,11.43
2019-04-13T09:21:04.991Z,10.93
2019-04-13T09:23:34.436Z,12.30
2019-04-13T09:26:03.966Z,11.87
2019-04-13T09:28:32.907Z,12.10
2019-04-13T09:31:01.936Z,12.67
2019-04-13T09:33:32.439Z,11.10
2019-04-13T09:36:01.536Z,11.13
2019-04-13T09:38:41.620Z,9.77
2019-04-13T09:41:03.330Z,10.97
2019-04-13T09:44:06.227Z,12.67
2019-04-13T09:46:37.573Z,12.53
2019-04-13T09:49:07.323Z,12.00
2019-04-13T09:51:39.634Z,12.17
2019-04-13T09:54:06.948Z,10.40
2019-04-13T09:56:37.458Z,10.60
2019-04-13T09:59:10.769Z,10.37
2019-04-13T10:01:37.196Z,9.57
2019-04-13T10:04:06.183Z,9.17
2019-04-13T10:06:35.218Z,12.37
2019-04-13T10:09:08.542Z,10.43
2019-04-13T10:12:05.807Z,8.97
2019-04-13T10:14:59.767Z,11.07
2019-04-13T10:17:33.710Z,10.80
2019-04-13T10:20:02.656Z,10.57
2019-04-13T10:22:31.594Z,12.83
2019-04-13T10:25:00.542Z,9.83
2019-04-13T10:27:29.535Z,12.70
2019-04-13T10:29:58.571Z,9.63
2019-04-13T10:32:30.883Z,11.50
2019-04-13T10:34:58.056Z,10.33
2019-04-13T10:37:27.040Z,8.67
2019-04-13T10:39:56.153Z,11.00
2019-04-13T10:42:25.136Z,8.67
2019-04-13T10:45:05.389Z,12.00
2019-04-13T10:47:55.943Z,10.60
2019-04-13T10:50:38.422Z,9.10
2019-04-13T10:53:07.779Z,9.50
2019-04-13T10:55:36.854Z,11.33
2019-04-13T10:58:05.808Z,11.27
2019-04-13T11:00:35.161Z,13.57
2019-04-13T11:03:04.239Z,8.50
2019-04-13T11:05:33.531Z,14.13
2019-04-13T11:08:02.689Z,9.53
2019-04-13T11:10:32.330Z,9.57
2019-04-13T11:13:02.299Z,8.90
2019-04-13T11:15:31.641Z,10.57
2019-04-13T11:18:02.830Z,10.30
2019-04-13T11:20:31.342Z,10.00
2019-04-13T11:23:00.823Z,9.10
2019-04-13T11:25:29.963Z,9.87
2019-04-13T11:27:59.058Z,9.87
2019-04-13T11:30:28.122Z,13.83
2019-04-13T11:32:57.164Z,11.57
2019-04-13T11:35:26.246Z,9.33
2019-04-13T11:37:55.334Z,8.77
2019-04-13T11:40:24.347Z,13.27
2019-04-13T11:43:01.437Z,10.20
2019-04-13T11:45:56.117Z,12.73
2019-04-13T11:48:46.760Z,10.03
2019-04-13T11:51:31.726Z,10.20
2019-04-13T11:53:57.862Z,9.83
2019-04-13T11:56:28.866Z,11.17
2019-04-13T11:58:57.708Z,11.83
2019-04-13T12:01:45.544Z,10.10
2019-04-13T12:04:32.594Z,10.30
2019-04-13T12:07:13.694Z,11.53
2019-04-13T12:09:55.359Z,15.23
2019-04-13T12:12:41.300Z,8.50
2019-04-13T12:15:28.326Z,9.70
2019-04-13T12:18:37.266Z,9.17
2019-04-13T12:21:32.725Z,10.63
2019-04-13T12:24:03.870Z,11.10
2019-04-13T12:26:32.875Z,8.77
2019-04-13T12:29:01.831Z,9.83
2019-04-13T12:31:30.850Z,12.57
2019-04-13T12:34:03.412Z,14.27
2019-04-13T12:36:30.783Z,8.80
2019-04-13T12:38:59.772Z,8.63
2019-04-13T12:41:34.499Z,10.63
2019-04-13T12:44:03.512Z,9.60
2019-04-13T12:46:32.624Z,8.63
2019-04-13T12:49:01.554Z,12.93
2019-04-13T12:51:30.645Z,11.50
2019-04-13T12:54:04.194Z,11.63
2019-04-13T12:56:31.199Z,12.33
2019-04-13T12:59:00.105Z,9.77
2019-04-13T13:01:46.051Z,13.37
2019-04-13T13:04:15.051Z,8.63
2019-04-13T13:06:44.041Z,12.37
2019-04-13T13:09:14.283Z,9.67
2019-04-13T13:11:44.196Z,10.10
2019-04-13T13:14:13.271Z,9.70
2019-04-13T13:16:46.173Z,12.30
2019-04-13T13:19:15.887Z,10.47
2019-04-13T13:21:44.022Z,11.33
2019-04-13T13:24:13.050Z,10.90
2019-04-13T13:26:48.032Z,13.20
2019-04-13T13:29:12.670Z,9.80
2019-04-13T13:31:41.955Z,10.60
2019-04-13T13:34:10.963Z,10.47
2019-04-13T13:36:40.060Z,12.97
2019-04-13T13:39:11.575Z,10.90
2019-04-13T13:41:40.266Z,12.00
2019-04-13T13:44:09.806Z,13.10
2019-04-13T13:46:38.861Z,10.63
2019-04-13T13:49:09.656Z,10.97
2019-04-13T13:51:38.379Z,11.93
2019-04-13T13:54:07.322Z,11.33
2019-04-13T13:56:36.263Z,12.67
2019-04-13T13:59:06.134Z,12.73
2019-04-13T14:01:43.464Z,10.23
2019-04-13T14:04:13.090Z,12.13
2019-04-13T14:06:41.988Z,12.73
2019-04-13T14:09:11.335Z,10.27
2019-04-13T14:11:40.336Z,13.50
2019-04-13T14:14:09.391Z,13.10
2019-04-13T14:16:38.298Z,11.13
2019-04-13T14:19:07.363Z,12.60
2019-04-13T14:21:38.422Z,11.37
2019-04-13T14:24:07.094Z,11.20
2019-04-13T14:26:36.011Z,10.47
2019-04-13T14:29:05.098Z,12.67
2019-04-13T14:31:34.021Z,15.57
2019-04-13T14:34:02.959Z,13.13
2019-04-13T14:36:35.315Z,13.00
2019-04-13T14:39:04.466Z,12.10
2019-04-13T14:41:33.418Z,14.03
2019-04-13T14:44:02.370Z,12.23
2019-04-13T14:46:31.699Z,11.30
2019-04-13T14:49:00.767Z,13.13
2019-04-13T14:51:30.123Z,9.30
2019-04-13T14:53:59.058Z,10.03
2019-04-13T14:56:28.039Z,12.00
2019-04-13T14:58:57.067Z,12.80
2019-04-13T15:01:26.027Z,10.50
2019-04-13T15:03:55.111Z,11.03
2019-04-13T15:06:25.086Z,12.03
2019-04-13T15:08:54.259Z,9.93
2019-04-13T15:11:23.357Z,12.47
2019-04-13T15:13:53.582Z,10.20
2019-04-13T15:16:24.612Z,11.70
2019-04-13T15:19:00.441Z,15.17
2019-04-13T15:21:31.007Z,9.37
2019-04-13T15:24:00.066Z,10.63
2019-04-13T15:26:29.856Z,13.43
2019-04-13T15:29:00.340Z,9.27
2019-04-13T15:31:33.656Z,11.40
2019-04-13T15:34:03.269Z,12.43
2019-04-13T15:36:33.020Z,9.33
2019-04-13T15:39:04.860Z,11.53
2019-04-13T15:41:42.057Z,11.80
2019-04-13T15:44:07.324Z,11.97
2019-04-13T15:46:35.322Z,13.00
2019-04-13T15:49:04.701Z,10.50
2019-04-13T15:51:34.466Z,9.77
2019-04-13T15:54:05.385Z,11.27
2019-04-13T15:56:34.422Z,9.60
2019-04-13T15:59:03.591Z,11.97
2019-04-13T16:01:34.470Z,11.73
2019-04-13T16:04:05.310Z,11.93
2019-04-13T16:06:35.947Z,10.57
2019-04-13T16:09:36.918Z,10.70
2019-04-13T16:12:10.204Z,12.00
2019-04-13T16:14:39.554Z,10.27
2019-04-13T16:17:08.504Z,11.33
2019-04-13T16:19:37.439Z,12.57
2019-04-13T16:22:07.030Z,10.53
2019-04-13T16:24:37.212Z,11.33
2019-04-13T16:27:06.258Z,10.27
2019-04-13T16:30:12.974Z,10.83
2019-04-13T16:33:00.170Z,10.07
2019-04-13T16:35:40.875Z,15.40
2019-04-13T16:38:09.790Z,11.17
2019-04-13T16:40:39.386Z,11.60
2019-04-13T16:43:09.079Z,9.67
2019-04-13T16:45:44.389Z,9.10
2019-04-13T16:48:34.384Z,10.20
2019-04-13T16:51:24.535Z,10.73
2019-04-13T16:54:08.367Z,9.67
2019-04-13T16:56:43.781Z,11.40
2019-04-13T16:59:22.136Z,9.07
2019-04-13T17:01:59.874Z,9.67
2019-04-13T17:04:36.016Z,10.70
2019-04-13T17:07:05.424Z,13.17
2019-04-13T17:09:34.998Z,9.60
2019-04-13T17:12:16.926Z,9.37
2019-04-13T17:14:34.866Z,8.87
2019-04-13T17:17:03.902Z,9.77
2019-04-13T17:19:57.803Z,10.47
2019-04-13T17:22:45.614Z,11.93
2019-04-13T17:25:24.793Z,11.00
2019-04-13T17:28:11.932Z,10.17
2019-04-13T17:30:46.241Z,11.80
2019-04-13T17:33:19.474Z,9.93
2019-04-13T17:35:50.012Z,9.27
2019-04-13T17:38:19.971Z,8.93
2019-04-13T17:41:01.631Z,10.63
2019-04-13T17:43:49.431Z,10.30
2019-04-13T17:46:36.967Z,9.30
2019-04-13T17:49:29.983Z,9.87
2019-04-13T17:52:29.839Z,10.83
2019-04-13T17:55:19.038Z,13.00
2019-04-13T17:58:07.758Z,11.77
2019-04-13T18:01:08.383Z,10.23
2019-04-13T18:03:56.515Z,12.57
2019-04-13T18:06:48.806Z,12.10
2019-04-13T18:09:46.078Z,11.03
2019-04-13T18:12:40.467Z,11.93
2019-04-13T18:15:21.789Z,10.87
2019-04-13T18:17:59.546Z,10.77
2019-04-13T18:20:29.941Z,10.97
2019-04-13T18:23:00.269Z,11.87
2019-04-13T18:25:39.950Z,11.47
2019-04-13T18:28:00.559Z,14.33
2019-04-13T18:30:34.457Z,14.90
2019-04-13T18:33:01.028Z,10.40
2019-04-13T18:35:31.168Z,9.50
2019-04-13T18:38:01.677Z,9.20
2019-04-13T18:40:32.159Z,11.67
2019-04-13T18:43:09.256Z,9.70
2019-04-13T18:45:32.959Z,9.30
2019-04-13T18:48:02.265Z,11.73
2019-04-13T18:50:31.270Z,9.57
2019-04-13T18:53:00.444Z,12.53
2019-04-13T18:55:30.968Z,9.20
2019-04-13T18:58:01.222Z,10.60
2019-04-13T19:00:30.543Z,10.40
2019-04-13T19:03:00.597Z,10.77
2019-04-13T19:05:29.973Z,11.77
2019-04-13T19:07:58.903Z,10.57
2019-04-13T19:10:28.240Z,14.37
2019-04-13T19:13:04.560Z,16.30
2019-04-13T19:15:30.258Z,13.30
2019-04-13T19:17:59.199Z,11.90
2019-04-13T19:20:28.229Z,14.70
2019-04-13T19:22:57.222Z,14.30
2019-04-13T19:25:26.163Z,13.27
2019-04-13T19:27:55.218Z,11.93
2019-04-13T19:31:02.992Z,12.67
2019-04-13T19:33:32.274Z,12.37
2019-04-13T19:36:01.278Z,12.47
2019-04-13T19:46:04.586Z,12.43
2019-04-13T19:48:33.561Z,13.30
2019-04-13T19:51:02.564Z,14.90
2019-04-13T19:53:44.859Z,13.60
2019-04-13T19:56:16.020Z,12.37
2019-04-13T19:58:45.014Z,12.57
2019-04-13T20:01:16.419Z,17.63
2019-04-13T20:03:45.310Z,14.00
2019-04-13T20:06:18.909Z,12.37
2019-04-13T20:08:44.991Z,11.70
2019-04-13T20:11:14.014Z,13.23
2019-04-13T20:13:50.360Z,12.33
2019-04-13T20:16:14.765Z,13.03
2019-04-13T20:18:44.102Z,13.37
2019-04-13T20:21:12.971Z,16.43
2019-04-13T20:23:42.035Z,13.37
2019-04-13T20:26:12.147Z,13.77
2019-04-13T20:28:41.863Z,13.83
2019-04-13T20:31:11.598Z,13.23
2019-04-13T20:33:41.810Z,15.13
2019-04-13T20:36:15.019Z,11.50
2019-04-13T20:38:41.634Z,12.37
2019-04-13T20:41:19.968Z,14.80
2019-04-13T20:43:57.447Z,13.20
2019-04-13T20:46:21.376Z,12.97
2019-04-13T20:48:51.122Z,13.77
2019-04-13T20:51:21.374Z,13.73
2019-04-13T20:53:50.551Z,13.67
2019-04-13T20:56:20.711Z,16.47
2019-04-13T20:58:50.988Z,12.07
2019-04-13T21:01:21.219Z,12.83
2019-04-13T21:03:51.209Z,12.80
2019-04-13T21:06:21.566Z,14.57
2019-04-13T21:08:53.943Z,13.37
2019-04-13T21:11:21.650Z,14.83
2019-04-13T21:14:04.977Z,12.53
2019-04-13T21:16:21.488Z,16.33
2019-04-13T21:18:51.523Z,13.47
2019-04-13T21:21:21.520Z,13.43
2019-04-13T21:23:51.781Z,14.13
2019-04-13T21:26:23.544Z,12.90
2019-04-13T21:28:51.585Z,12.47
2019-04-13T21:31:21.768Z,13.17
2019-04-13T21:33:51.872Z,13.27
2019-04-13T21:36:21.736Z,12.60
2019-04-13T21:38:51.698Z,12.57
2019-04-13T21:41:21.771Z,12.80
2019-04-13T21:43:51.878Z,16.40
2019-04-13T21:46:21.993Z,11.93
2019-04-13T21:48:52.382Z,13.87
2019-04-13T21:51:46.647Z,12.53
2019-04-13T21:54:19.426Z,13.83
2019-04-13T21:56:49.452Z,13.43
2019-04-13T21:59:19.431Z,15.73
2019-04-13T22:02:05.011Z,11.77
2019-04-13T22:04:34.816Z,14.57
2019-04-13T22:07:04.741Z,14.37
2019-04-13T22:09:34.878Z,12.27
2019-04-13T22:12:04.727Z,13.07
2019-04-13T22:14:44.102Z,15.10
2019-04-13T22:17:05.366Z,16.37
2019-04-13T22:19:35.457Z,12.60
2019-04-13T22:22:05.494Z,13.43
2019-04-13T22:24:35.216Z,14.97
2019-04-13T22:27:07.629Z,12.87
2019-04-13T22:29:48.484Z,14.80
2019-04-13T22:32:36.686Z,12.93
2019-04-13T22:35:28.273Z,16.33
2019-04-13T22:37:58.076Z,15.37
2019-04-13T22:40:27.883Z,15.60
2019-04-13T22:42:58.078Z,16.40
2019-04-13T22:45:27.742Z,15.20
2019-04-13T22:48:02.691Z,14.87
2019-04-13T22:50:57.056Z,15.33
2019-04-13T22:53:48.331Z,18.10
2019-04-13T22:56:48.769Z,15.43
2019-04-13T22:59:18.866Z,16.00
2019-04-13T23:01:57.499Z,14.67
2019-04-13T23:04:27.580Z,14.10
2019-04-13T23:06:57.466Z,14.23
2019-04-13T23:09:28.019Z,15.10
2019-04-13T23:11:58.438Z,16.87
2019-04-13T23:14:28.625Z,16.07
2019-04-13T23:16:58.486Z,12.90
2019-04-13T23:19:28.542Z,13.97
2019-04-13T23:21:57.799Z,13.73
2019-04-13T23:24:29.989Z,14.20
2019-04-13T23:26:58.029Z,14.13
2019-04-13T23:29:28.201Z,14.53
2019-04-13T23:31:58.438Z,16.30
2019-04-13T23:34:28.949Z,14.70
2019-04-13T23:36:59.391Z,13.37
2019-04-13T23:39:28.485Z,15.50
2019-04-13T23:41:58.278Z,16.37
2019-04-13T23:44:27.402Z,13.13
2019-04-13T23:46:56.907Z,14.87
2019-04-13T23:49:26.177Z,15.73
2019-04-13T23:51:55.800Z,17.07
2019-04-13T23:54:26.009Z,16.40
2019-04-13T23:57:07.878Z,18.63
2019-04-13T23:59:45.642Z,15.33
